Aérodrome :
LOGIN :

S'inscrire | Disclaimer

   EN    FR    IT 

 










Légende :    VFR   VFR Marginal   IFR   IFR Intensif   IFR Très Intensif
Visi : 
Plafond : 
>= 8 km
>= 3000ft
5 à 8 km
1000 à 3000 ft
1500m à 5 km
500 à 1000 ft
800 à 1500m
200 à 500 ft
< 800m
< 200 ft
Symboles :   Orages  Brouillard  Fortes neiges  Fortes précipitations  Vent > 20 kt
SIGMETs :   Divers  Orages  Givrage  Turbulence  Onde Orograph.  Cendres Volcan.







- Altitude de l'aérodrome : 179 ft


LIPI - Rivolto AFB Udine

DERNIER METAR :
  • 131455Z /////KT 2500 BR FEW008 SCT025 BKN040 14/12 Q1026 RMK OVC VIS MIN 2500 WIND THR06 17002KT WIND THR24 19003KT YLO

METARs EXPIRÉS :
  • 131355Z /////KT 2500 BR FEW008 SCT020 BKN025 14/12 Q1026 RMK OVC VIS MIN 2500 WIND THR06 19004KT WIND THR24 21005KT YLO
  • 131255Z /////KT 2500 BR FEW008 SCT020 BKN025 15/12 Q1026 RMK OVC VIS MIN 2500 WIND THR06 23003KT WIND THR24 21004KT YLO

TAF TAF LIPI
Valide du 13 à 15h jusqu'au 14 à 00h UTC


131400Z 1315/1324 20005KT 3000 BR SCT010 BKN020
Pas de NOTAMs connus pour ce terrain.



MET'MAP, la Météo Aéronautique d'un coup d'oeil ! - Copyright ORBIFLY Décembre 2007 - Disclaimer

ORBIFLY MET'MAP TEAM :

Programmation & Développement : Alexandra Zaïnal
Conception & Développement : Baudouin d'Aumeries
Co-Programmation & Développement : Marc-Olivier Méhu
Soutien technique & logistique : Manuel Goepfert

Contact : metmap@orbifly.com




SOURCES & CREDITS :

   NOAA